sensor_id;sensor_type;location;lat;lon;timestamp;P1;durP1;ratioP1;P2;durP2;ratioP2
3278;SDS011;1651;50.940;6.888;2023-04-15T00:01:52;9.15;;;4.35;;
3278;SDS011;1651;50.940;6.888;2023-04-15T00:04:19;5.45;;;3.33;;
3278;SDS011;1651;50.940;6.888;2023-04-15T00:06:49;6.13;;;3.80;;
3278;SDS011;1651;50.940;6.888;2023-04-15T00:09:17;4.80;;;3.72;;
3278;SDS011;1651;50.940;6.888;2023-04-15T00:11:43;8.93;;;4.40;;
3278;SDS011;1651;50.940;6.888;2023-04-15T00:20:28;5.93;;;3.60;;
3278;SDS011;1651;50.940;6.888;2023-04-15T00:22:55;8.90;;;4.35;;
3278;SDS011;1651;50.940;6.888;2023-04-15T00:25:22;5.60;;;4.00;;
3278;SDS011;1651;50.940;6.888;2023-04-15T00:27:48;6.88;;;4.32;;
3278;SDS011;1651;50.940;6.888;2023-04-15T00:30:15;5.65;;;3.65;;
3278;SDS011;1651;50.940;6.888;2023-04-15T00:32:41;5.53;;;3.85;;
3278;SDS011;1651;50.940;6.888;2023-04-15T00:35:08;5.22;;;4.25;;
3278;SDS011;1651;50.940;6.888;2023-04-15T00:37:34;5.97;;;3.45;;
3278;SDS011;1651;50.940;6.888;2023-04-15T00:40:01;6.70;;;3.83;;
3278;SDS011;1651;50.940;6.888;2023-04-15T00:42:30;6.93;;;3.53;;
3278;SDS011;1651;50.940;6.888;2023-04-15T00:44:56;4.75;;;3.63;;
3278;SDS011;1651;50.940;6.888;2023-04-15T00:47:22;6.22;;;3.83;;
3278;SDS011;1651;50.940;6.888;2023-04-15T00:49:49;7.10;;;3.65;;
3278;SDS011;1651;50.940;6.888;2023-04-15T00:52:15;6.80;;;3.60;;
3278;SDS011;1651;50.940;6.888;2023-04-15T00:54:43;6.20;;;4.20;;
3278;SDS011;1651;50.940;6.888;2023-04-15T00:57:10;5.68;;;3.38;;
3278;SDS011;1651;50.940;6.888;2023-04-15T00:59:37;9.27;;;4.30;;
3278;SDS011;1651;50.940;6.888;2023-04-15T01:02:04;6.22;;;3.60;;
3278;SDS011;1651;50.940;6.888;2023-04-15T01:04:32;6.90;;;3.50;;
3278;SDS011;1651;50.940;6.888;2023-04-15T01:06:58;5.35;;;4.05;;
3278;SDS011;1651;50.940;6.888;2023-04-15T01:09:25;5.38;;;3.83;;
3278;SDS011;1651;50.940;6.888;2023-04-15T01:11:51;4.05;;;3.03;;
3278;SDS011;1651;50.940;6.888;2023-04-15T01:14:18;6.43;;;3.85;;
3278;SDS011;1651;50.940;6.888;2023-04-15T01:16:45;6.82;;;3.58;;
3278;SDS011;1651;50.940;6.888;2023-04-15T01:19:11;4.50;;;3.10;;
3278;SDS011;1651;50.940;6.888;2023-04-15T01:21:42;5.07;;;3.38;;
3278;SDS011;1651;50.940;6.888;2023-04-15T01:24:09;5.35;;;3.70;;
3278;SDS011;1651;50.940;6.888;2023-04-15T01:26:36;7.28;;;3.60;;
3278;SDS011;1651;50.940;6.888;2023-04-15T01:29:04;5.05;;;3.55;;
3278;SDS011;1651;50.940;6.888;2023-04-15T01:31:30;7.63;;;3.72;;
3278;SDS011;1651;50.940;6.888;2023-04-15T01:33:57;11.35;;;4.13;;
3278;SDS011;1651;50.940;6.888;2023-04-15T01:36:23;7.85;;;3.67;;
3278;SDS011;1651;50.940;6.888;2023-04-15T01:38:49;8.60;;;3.85;;
3278;SDS011;1651;50.940;6.888;2023-04-15T01:41:16;5.15;;;3.85;;
3278;SDS011;1651;50.940;6.888;2023-04-15T01:43:47;9.02;;;3.97;;
3278;SDS011;1651;50.940;6.888;2023-04-15T01:46:13;9.83;;;3.60;;
3278;SDS011;1651;50.940;6.888;2023-04-15T01:48:39;4.28;;;3.80;;
3278;SDS011;1651;50.940;6.888;2023-04-15T01:51:05;7.28;;;3.17;;
3278;SDS011;1651;50.940;6.888;2023-04-15T01:53:33;10.32;;;4.28;;
3278;SDS011;1651;50.940;6.888;2023-04-15T01:55:59;4.72;;;3.58;;
3278;SDS011;1651;50.940;6.888;2023-04-15T01:58:26;7.05;;;4.35;;
3278;SDS011;1651;50.940;6.888;2023-04-15T02:00:53;10.53;;;4.70;;
3278;SDS011;1651;50.940;6.888;2023-04-15T02:03:19;5.45;;;4.40;;
3278;SDS011;1651;50.940;6.888;2023-04-15T02:05:45;5.90;;;4.30;;
3278;SDS011;1651;50.940;6.888;2023-04-15T02:08:11;9.55;;;4.32;;
3278;SDS011;1651;50.940;6.888;2023-04-15T02:10:37;9.50;;;3.97;;
3278;SDS011;1651;50.940;6.888;2023-04-15T02:13:03;8.70;;;4.53;;
3278;SDS011;1651;50.940;6.888;2023-04-15T02:15:29;5.07;;;4.32;;
3278;SDS011;1651;50.940;6.888;2023-04-15T02:17:55;8.98;;;4.80;;
3278;SDS011;1651;50.940;6.888;2023-04-15T02:20:21;17.45;;;4.93;;
3278;SDS011;1651;50.940;6.888;2023-04-15T02:22:47;9.35;;;4.80;;
3278;SDS011;1651;50.940;6.888;2023-04-15T02:25:15;11.68;;;5.00;;
3278;SDS011;1651;50.940;6.888;2023-04-15T02:27:41;6.68;;;4.30;;
3278;SDS011;1651;50.940;6.888;2023-04-15T02:30:09;8.68;;;4.10;;
3278;SDS011;1651;50.940;6.888;2023-04-15T02:32:35;9.35;;;5.57;;
3278;SDS011;1651;50.940;6.888;2023-04-15T02:35:05;4.47;;;3.60;;
3278;SDS011;1651;50.940;6.888;2023-04-15T02:37:31;6.82;;;4.20;;
3278;SDS011;1651;50.940;6.888;2023-04-15T02:40:01;8.05;;;4.50;;
3278;SDS011;1651;50.940;6.888;2023-04-15T02:42:27;12.73;;;4.70;;
3278;SDS011;1651;50.940;6.888;2023-04-15T02:44:55;8.50;;;5.30;;
3278;SDS011;1651;50.940;6.888;2023-04-15T02:47:22;6.78;;;4.30;;
3278;SDS011;1651;50.940;6.888;2023-04-15T02:49:48;5.57;;;4.07;;
3278;SDS011;1651;50.940;6.888;2023-04-15T02:52:14;9.77;;;5.13;;
3278;SDS011;1651;50.940;6.888;2023-04-15T02:54:40;8.43;;;3.88;;
3278;SDS011;1651;50.940;6.888;2023-04-15T02:57:06;10.32;;;4.55;;
3278;SDS011;1651;50.940;6.888;2023-04-15T02:59:32;6.50;;;4.18;;
3278;SDS011;1651;50.940;6.888;2023-04-15T03:01:58;6.33;;;4.67;;
3278;SDS011;1651;50.940;6.888;2023-04-15T03:04:25;7.30;;;4.32;;
3278;SDS011;1651;50.940;6.888;2023-04-15T03:06:51;6.25;;;4.53;;
3278;SDS011;1651;50.940;6.888;2023-04-15T03:09:17;10.52;;;4.20;;
3278;SDS011;1651;50.940;6.888;2023-04-15T03:11:43;8.73;;;4.90;;
3278;SDS011;1651;50.940;6.888;2023-04-15T03:14:09;5.10;;;3.53;;
3278;SDS011;1651;50.940;6.888;2023-04-15T03:16:35;8.10;;;5.07;;
3278;SDS011;1651;50.940;6.888;2023-04-15T03:19:01;8.93;;;3.77;;
3278;SDS011;1651;50.940;6.888;2023-04-15T03:21:27;6.50;;;3.85;;
3278;SDS011;1651;50.940;6.888;2023-04-15T03:23:53;9.33;;;3.73;;
3278;SDS011;1651;50.940;6.888;2023-04-15T03:26:27;6.40;;;5.07;;
3278;SDS011;1651;50.940;6.888;2023-04-15T03:28:53;5.40;;;4.28;;
3278;SDS011;1651;50.940;6.888;2023-04-15T03:31:19;7.05;;;4.60;;
3278;SDS011;1651;50.940;6.888;2023-04-15T03:33:45;5.80;;;5.25;;
3278;SDS011;1651;50.940;6.888;2023-04-15T03:36:12;7.10;;;4.45;;
3278;SDS011;1651;50.940;6.888;2023-04-15T03:38:38;5.50;;;4.25;;
3278;SDS011;1651;50.940;6.888;2023-04-15T03:41:06;9.55;;;4.80;;
3278;SDS011;1651;50.940;6.888;2023-04-15T03:43:33;6.57;;;4.40;;
3278;SDS011;1651;50.940;6.888;2023-04-15T03:45:59;6.45;;;4.10;;
3278;SDS011;1651;50.940;6.888;2023-04-15T03:48:25;6.70;;;4.40;;
3278;SDS011;1651;50.940;6.888;2023-04-15T03:50:51;5.53;;;4.20;;
3278;SDS011;1651;50.940;6.888;2023-04-15T03:53:17;5.13;;;3.97;;
3278;SDS011;1651;50.940;6.888;2023-04-15T03:55:43;6.82;;;4.55;;
3278;SDS011;1651;50.940;6.888;2023-04-15T03:58:10;5.35;;;4.07;;
3278;SDS011;1651;50.940;6.888;2023-04-15T04:00:37;6.10;;;4.90;;
3278;SDS011;1651;50.940;6.888;2023-04-15T04:03:06;4.50;;;3.80;;
3278;SDS011;1651;50.940;6.888;2023-04-15T04:05:32;4.68;;;4.20;;
3278;SDS011;1651;50.940;6.888;2023-04-15T04:08:02;7.90;;;4.00;;
3278;SDS011;1651;50.940;6.888;2023-04-15T04:10:28;5.60;;;4.20;;
3278;SDS011;1651;50.940;6.888;2023-04-15T04:12:54;7.50;;;5.33;;
3278;SDS011;1651;50.940;6.888;2023-04-15T04:15:20;7.38;;;4.43;;
3278;SDS011;1651;50.940;6.888;2023-04-15T04:17:46;8.95;;;4.10;;
3278;SDS011;1651;50.940;6.888;2023-04-15T04:20:13;5.65;;;4.20;;
3278;SDS011;1651;50.940;6.888;2023-04-15T04:22:40;5.93;;;5.35;;
3278;SDS011;1651;50.940;6.888;2023-04-15T04:25:06;5.75;;;4.13;;
3278;SDS011;1651;50.940;6.888;2023-04-15T04:27:34;6.80;;;4.50;;
3278;SDS011;1651;50.940;6.888;2023-04-15T04:30:01;6.85;;;4.35;;
3278;SDS011;1651;50.940;6.888;2023-04-15T04:32:27;6.53;;;4.30;;
3278;SDS011;1651;50.940;6.888;2023-04-15T04:34:54;5.00;;;4.20;;
3278;SDS011;1651;50.940;6.888;2023-04-15T04:37:21;8.98;;;4.53;;
3278;SDS011;1651;50.940;6.888;2023-04-15T04:39:47;6.65;;;4.30;;
3278;SDS011;1651;50.940;6.888;2023-04-15T04:42:13;5.95;;;4.10;;
3278;SDS011;1651;50.940;6.888;2023-04-15T04:44:41;5.18;;;4.68;;
3278;SDS011;1651;50.940;6.888;2023-04-15T04:47:09;9.85;;;5.43;;
3278;SDS011;1651;50.940;6.888;2023-04-15T04:49:37;11.70;;;5.40;;
3278;SDS011;1651;50.940;6.888;2023-04-15T04:52:03;8.45;;;5.10;;
3278;SDS011;1651;50.940;6.888;2023-04-15T04:54:29;6.88;;;4.80;;
3278;SDS011;1651;50.940;6.888;2023-04-15T04:56:55;7.30;;;5.05;;
3278;SDS011;1651;50.940;6.888;2023-04-15T04:59:21;8.07;;;5.13;;
3278;SDS011;1651;50.940;6.888;2023-04-15T05:01:48;5.30;;;4.70;;
3278;SDS011;1651;50.940;6.888;2023-04-15T05:04:19;4.80;;;3.75;;
3278;SDS011;1651;50.940;6.888;2023-04-15T05:09:17;5.90;;;4.80;;
3278;SDS011;1651;50.940;6.888;2023-04-15T05:11:43;12.80;;;6.70;;
3278;SDS011;1651;50.940;6.888;2023-04-15T05:14:10;8.35;;;5.25;;
3278;SDS011;1651;50.940;6.888;2023-04-15T05:16:36;8.63;;;4.80;;
3278;SDS011;1651;50.940;6.888;2023-04-15T05:19:04;7.28;;;5.10;;
3278;SDS011;1651;50.940;6.888;2023-04-15T05:24:00;11.98;;;5.75;;
3278;SDS011;1651;50.940;6.888;2023-04-15T05:26:28;8.10;;;5.60;;
3278;SDS011;1651;50.940;6.888;2023-04-15T05:28:54;5.43;;;4.45;;
3278;SDS011;1651;50.940;6.888;2023-04-15T05:31:20;8.40;;;5.47;;
3278;SDS011;1651;50.940;6.888;2023-04-15T05:33:46;9.33;;;4.90;;
3278;SDS011;1651;50.940;6.888;2023-04-15T05:36:12;8.37;;;5.20;;
3278;SDS011;1651;50.940;6.888;2023-04-15T05:38:41;6.78;;;4.97;;
3278;SDS011;1651;50.940;6.888;2023-04-15T05:41:08;13.05;;;5.75;;
3278;SDS011;1651;50.940;6.888;2023-04-15T05:43:34;14.57;;;6.97;;
3278;SDS011;1651;50.940;6.888;2023-04-15T05:48:32;12.05;;;8.00;;
3278;SDS011;1651;50.940;6.888;2023-04-15T05:50:58;11.52;;;5.72;;
3278;SDS011;1651;50.940;6.888;2023-04-15T05:53:28;11.35;;;6.60;;
3278;SDS011;1651;50.940;6.888;2023-04-15T05:55:54;8.80;;;6.15;;
3278;SDS011;1651;50.940;6.888;2023-04-15T05:58:20;9.82;;;6.18;;
3278;SDS011;1651;50.940;6.888;2023-04-15T06:00:46;12.15;;;6.50;;
3278;SDS011;1651;50.940;6.888;2023-04-15T06:03:14;11.23;;;6.20;;
3278;SDS011;1651;50.940;6.888;2023-04-15T06:05:42;9.50;;;5.40;;
3278;SDS011;1651;50.940;6.888;2023-04-15T06:08:09;9.98;;;6.55;;
3278;SDS011;1651;50.940;6.888;2023-04-15T06:10:36;8.82;;;6.50;;
3278;SDS011;1651;50.940;6.888;2023-04-15T06:13:20;8.32;;;5.50;;
3278;SDS011;1651;50.940;6.888;2023-04-15T06:15:46;9.18;;;5.70;;
3278;SDS011;1651;50.940;6.888;2023-04-15T06:18:14;8.77;;;5.68;;
3278;SDS011;1651;50.940;6.888;2023-04-15T06:20:41;7.65;;;6.00;;
3278;SDS011;1651;50.940;6.888;2023-04-15T06:23:09;9.05;;;5.50;;
3278;SDS011;1651;50.940;6.888;2023-04-15T06:25:35;9.47;;;5.40;;
3278;SDS011;1651;50.940;6.888;2023-04-15T06:28:01;8.50;;;6.17;;
3278;SDS011;1651;50.940;6.888;2023-04-15T06:30:28;8.37;;;5.70;;
3278;SDS011;1651;50.940;6.888;2023-04-15T06:32:54;8.20;;;5.60;;
3278;SDS011;1651;50.940;6.888;2023-04-15T06:35:24;6.50;;;5.63;;
3278;SDS011;1651;50.940;6.888;2023-04-15T06:37:52;7.50;;;5.90;;
3278;SDS011;1651;50.940;6.888;2023-04-15T06:40:18;7.53;;;5.50;;
3278;SDS011;1651;50.940;6.888;2023-04-15T06:42:44;9.20;;;6.17;;
3278;SDS011;1651;50.940;6.888;2023-04-15T06:45:12;15.30;;;6.13;;
3278;SDS011;1651;50.940;6.888;2023-04-15T06:47:39;7.63;;;5.40;;
3278;SDS011;1651;50.940;6.888;2023-04-15T06:50:06;8.13;;;5.07;;
3278;SDS011;1651;50.940;6.888;2023-04-15T06:52:33;13.10;;;6.03;;
3278;SDS011;1651;50.940;6.888;2023-04-15T06:55:02;12.93;;;8.27;;
3278;SDS011;1651;50.940;6.888;2023-04-15T06:57:29;7.50;;;5.57;;
3278;SDS011;1651;50.940;6.888;2023-04-15T06:59:55;7.90;;;5.07;;
3278;SDS011;1651;50.940;6.888;2023-04-15T07:02:21;9.20;;;5.03;;
3278;SDS011;1651;50.940;6.888;2023-04-15T07:04:48;9.13;;;5.40;;
3278;SDS011;1651;50.940;6.888;2023-04-15T07:07:16;7.37;;;4.77;;
3278;SDS011;1651;50.940;6.888;2023-04-15T07:09:42;6.27;;;4.57;;
3278;SDS011;1651;50.940;6.888;2023-04-15T07:12:09;7.07;;;5.20;;
3278;SDS011;1651;50.940;6.888;2023-04-15T07:14:37;6.70;;;5.00;;
3278;SDS011;1651;50.940;6.888;2023-04-15T07:17:03;5.63;;;4.77;;
3278;SDS011;1651;50.940;6.888;2023-04-15T07:19:29;6.95;;;5.32;;
3278;SDS011;1651;50.940;6.888;2023-04-15T07:22:01;6.87;;;5.53;;
3278;SDS011;1651;50.940;6.888;2023-04-15T07:24:27;6.53;;;5.40;;
3278;SDS011;1651;50.940;6.888;2023-04-15T07:26:54;7.13;;;5.73;;
3278;SDS011;1651;50.940;6.888;2023-04-15T07:29:21;6.77;;;6.00;;
3278;SDS011;1651;50.940;6.888;2023-04-15T07:31:47;6.60;;;5.60;;
3278;SDS011;1651;50.940;6.888;2023-04-15T07:34:13;5.40;;;4.90;;
3278;SDS011;1651;50.940;6.888;2023-04-15T07:36:49;8.10;;;5.40;;
3278;SDS011;1651;50.940;6.888;2023-04-15T07:39:19;9.17;;;5.70;;
3278;SDS011;1651;50.940;6.888;2023-04-15T07:41:47;6.33;;;5.47;;
3278;SDS011;1651;50.940;6.888;2023-04-15T07:44:13;11.80;;;5.63;;
3278;SDS011;1651;50.940;6.888;2023-04-15T07:46:43;5.77;;;5.17;;
3278;SDS011;1651;50.940;6.888;2023-04-15T07:49:10;7.40;;;6.70;;
3278;SDS011;1651;50.940;6.888;2023-04-15T07:51:36;6.10;;;5.13;;
3278;SDS011;1651;50.940;6.888;2023-04-15T07:54:03;7.30;;;5.70;;
3278;SDS011;1651;50.940;6.888;2023-04-15T07:56:29;6.27;;;5.70;;
3278;SDS011;1651;50.940;6.888;2023-04-15T07:58:55;6.10;;;5.50;;
3278;SDS011;1651;50.940;6.888;2023-04-15T08:01:22;6.83;;;6.23;;
3278;SDS011;1651;50.940;6.888;2023-04-15T08:03:48;12.10;;;7.10;;
3278;SDS011;1651;50.940;6.888;2023-04-15T08:06:14;7.87;;;6.07;;
3278;SDS011;1651;50.940;6.888;2023-04-15T08:08:40;5.73;;;4.93;;
3278;SDS011;1651;50.940;6.888;2023-04-15T08:11:08;6.37;;;5.77;;
3278;SDS011;1651;50.940;6.888;2023-04-15T08:13:34;6.10;;;4.93;;
3278;SDS011;1651;50.940;6.888;2023-04-15T08:16:17;6.50;;;5.73;;
3278;SDS011;1651;50.940;6.888;2023-04-15T08:18:48;7.67;;;6.27;;
3278;SDS011;1651;50.940;6.888;2023-04-15T08:21:16;4.83;;;4.43;;
3278;SDS011;1651;50.940;6.888;2023-04-15T08:23:43;3.90;;;3.50;;
3278;SDS011;1651;50.940;6.888;2023-04-15T08:26:09;8.20;;;3.30;;
3278;SDS011;1651;50.940;6.888;2023-04-15T08:28:36;3.80;;;2.57;;
3278;SDS011;1651;50.940;6.888;2023-04-15T08:31:05;3.60;;;2.77;;
3278;SDS011;1651;50.940;6.888;2023-04-15T08:33:32;3.80;;;2.90;;
3278;SDS011;1651;50.940;6.888;2023-04-15T08:36:00;3.77;;;2.50;;
3278;SDS011;1651;50.940;6.888;2023-04-15T08:38:27;2.80;;;2.50;;
3278;SDS011;1651;50.940;6.888;2023-04-15T08:40:53;2.93;;;1.90;;
3278;SDS011;1651;50.940;6.888;2023-04-15T08:43:22;3.93;;;1.83;;
3278;SDS011;1651;50.940;6.888;2023-04-15T08:45:51;3.00;;;2.10;;
3278;SDS011;1651;50.940;6.888;2023-04-15T08:48:19;2.53;;;2.30;;
3278;SDS011;1651;50.940;6.888;2023-04-15T08:50:45;4.90;;;2.53;;
3278;SDS011;1651;50.940;6.888;2023-04-15T08:53:12;3.47;;;2.40;;
3278;SDS011;1651;50.940;6.888;2023-04-15T08:55:45;3.20;;;2.20;;
3278;SDS011;1651;50.940;6.888;2023-04-15T08:58:12;2.93;;;2.07;;
3278;SDS011;1651;50.940;6.888;2023-04-15T09:00:39;2.97;;;2.57;;
3278;SDS011;1651;50.940;6.888;2023-04-15T09:03:07;4.13;;;2.37;;
3278;SDS011;1651;50.940;6.888;2023-04-15T09:05:37;2.50;;;2.30;;
3278;SDS011;1651;50.940;6.888;2023-04-15T09:08:03;3.50;;;2.00;;
3278;SDS011;1651;50.940;6.888;2023-04-15T09:10:31;3.07;;;2.30;;
3278;SDS011;1651;50.940;6.888;2023-04-15T09:12:58;3.03;;;2.50;;
3278;SDS011;1651;50.940;6.888;2023-04-15T09:15:25;2.63;;;2.40;;
3278;SDS011;1651;50.940;6.888;2023-04-15T09:17:54;4.30;;;2.23;;
3278;SDS011;1651;50.940;6.888;2023-04-15T09:20:20;6.77;;;2.50;;
3278;SDS011;1651;50.940;6.888;2023-04-15T09:22:48;3.17;;;2.23;;
3278;SDS011;1651;50.940;6.888;2023-04-15T09:27:50;2.10;;;1.80;;
3278;SDS011;1651;50.940;6.888;2023-04-15T09:30:17;3.50;;;2.27;;
3278;SDS011;1651;50.940;6.888;2023-04-15T09:32:48;2.40;;;2.03;;
3278;SDS011;1651;50.940;6.888;2023-04-15T09:35:15;2.73;;;1.73;;
3278;SDS011;1651;50.940;6.888;2023-04-15T09:37:42;3.23;;;2.00;;
3278;SDS011;1651;50.940;6.888;2023-04-15T09:40:08;2.40;;;1.93;;
3278;SDS011;1651;50.940;6.888;2023-04-15T09:42:35;3.20;;;2.50;;
3278;SDS011;1651;50.940;6.888;2023-04-15T09:45:08;3.60;;;2.53;;
3278;SDS011;1651;50.940;6.888;2023-04-15T09:47:36;5.73;;;2.43;;
3278;SDS011;1651;50.940;6.888;2023-04-15T09:50:03;4.80;;;2.20;;
3278;SDS011;1651;50.940;6.888;2023-04-15T09:52:29;3.20;;;2.53;;
3278;SDS011;1651;50.940;6.888;2023-04-15T09:57:25;4.37;;;2.97;;
3278;SDS011;1651;50.940;6.888;2023-04-15T09:59:58;2.90;;;2.00;;
3278;SDS011;1651;50.940;6.888;2023-04-15T10:02:24;2.93;;;2.60;;
3278;SDS011;1651;50.940;6.888;2023-04-15T10:04:51;3.10;;;2.63;;
3278;SDS011;1651;50.940;6.888;2023-04-15T10:07:19;3.80;;;3.50;;
3278;SDS011;1651;50.940;6.888;2023-04-15T10:09:47;5.83;;;3.67;;
3278;SDS011;1651;50.940;6.888;2023-04-15T10:12:15;5.27;;;3.47;;
3278;SDS011;1651;50.940;6.888;2023-04-15T10:14:42;3.60;;;2.80;;
3278;SDS011;1651;50.940;6.888;2023-04-15T10:17:13;2.97;;;2.67;;
3278;SDS011;1651;50.940;6.888;2023-04-15T10:19:41;3.47;;;2.83;;
3278;SDS011;1651;50.940;6.888;2023-04-15T10:22:07;3.90;;;3.50;;
3278;SDS011;1651;50.940;6.888;2023-04-15T10:24:33;3.90;;;3.50;;
3278;SDS011;1651;50.940;6.888;2023-04-15T10:27:02;4.10;;;3.10;;
3278;SDS011;1651;50.940;6.888;2023-04-15T10:29:28;4.13;;;3.33;;
3278;SDS011;1651;50.940;6.888;2023-04-15T10:31:54;4.47;;;3.10;;
3278;SDS011;1651;50.940;6.888;2023-04-15T10:34:21;3.80;;;3.40;;
3278;SDS011;1651;50.940;6.888;2023-04-15T10:36:50;4.60;;;3.90;;
3278;SDS011;1651;50.940;6.888;2023-04-15T10:42:11;4.50;;;4.10;;
3278;SDS011;1651;50.940;6.888;2023-04-15T10:44:38;4.70;;;3.87;;
3278;SDS011;1651;50.940;6.888;2023-04-15T10:47:10;4.87;;;4.37;;
3278;SDS011;1651;50.940;6.888;2023-04-15T10:49:41;5.50;;;4.00;;
3278;SDS011;1651;50.940;6.888;2023-04-15T10:52:09;5.47;;;4.20;;
3278;SDS011;1651;50.940;6.888;2023-04-15T10:54:35;4.63;;;4.10;;
3278;SDS011;1651;50.940;6.888;2023-04-15T11:00:15;4.93;;;4.40;;
3278;SDS011;1651;50.940;6.888;2023-04-15T11:02:16;4.20;;;3.73;;
3278;SDS011;1651;50.940;6.888;2023-04-15T11:04:56;3.97;;;3.53;;
3278;SDS011;1651;50.940;6.888;2023-04-15T11:10:01;4.13;;;3.70;;
3278;SDS011;1651;50.940;6.888;2023-04-15T11:12:34;3.70;;;3.40;;
3278;SDS011;1651;50.940;6.888;2023-04-15T11:17:49;3.40;;;3.10;;
3278;SDS011;1651;50.940;6.888;2023-04-15T11:20:16;3.70;;;3.40;;
3278;SDS011;1651;50.940;6.888;2023-04-15T11:22:54;4.13;;;3.77;;
3278;SDS011;1651;50.940;6.888;2023-04-15T11:25:30;7.30;;;4.30;;
3278;SDS011;1651;50.940;6.888;2023-04-15T11:27:58;3.83;;;3.50;;
3278;SDS011;1651;50.940;6.888;2023-04-15T11:30:27;5.30;;;4.80;;
3278;SDS011;1651;50.940;6.888;2023-04-15T11:32:56;4.90;;;4.50;;
3278;SDS011;1651;50.940;6.888;2023-04-15T11:35:23;4.13;;;3.83;;
3278;SDS011;1651;50.940;6.888;2023-04-15T11:37:50;6.67;;;4.13;;
3278;SDS011;1651;50.940;6.888;2023-04-15T11:40:25;5.13;;;4.43;;
3278;SDS011;1651;50.940;6.888;2023-04-15T11:43:09;5.13;;;4.63;;
3278;SDS011;1651;50.940;6.888;2023-04-15T11:45:36;4.20;;;3.80;;
3278;SDS011;1651;50.940;6.888;2023-04-15T11:48:08;4.23;;;3.83;;
3278;SDS011;1651;50.940;6.888;2023-04-15T11:50:35;3.90;;;3.60;;
3278;SDS011;1651;50.940;6.888;2023-04-15T11:53:03;3.70;;;3.40;;
3278;SDS011;1651;50.940;6.888;2023-04-15T11:55:30;4.37;;;4.07;;
3278;SDS011;1651;50.940;6.888;2023-04-15T11:58:13;5.17;;;4.53;;
3278;SDS011;1651;50.940;6.888;2023-04-15T12:00:49;4.77;;;4.47;;
3278;SDS011;1651;50.940;6.888;2023-04-15T12:03:27;5.60;;;5.10;;
3278;SDS011;1651;50.940;6.888;2023-04-15T12:13:49;5.63;;;5.20;;
3278;SDS011;1651;50.940;6.888;2023-04-15T12:16:18;5.70;;;5.30;;
3278;SDS011;1651;50.940;6.888;2023-04-15T12:18:46;5.40;;;5.00;;
3278;SDS011;1651;50.940;6.888;2023-04-15T12:21:12;5.70;;;5.20;;
3278;SDS011;1651;50.940;6.888;2023-04-15T12:23:49;5.70;;;5.20;;
3278;SDS011;1651;50.940;6.888;2023-04-15T12:26:15;4.97;;;4.57;;
3278;SDS011;1651;50.940;6.888;2023-04-15T12:28:42;4.27;;;3.87;;
3278;SDS011;1651;50.940;6.888;2023-04-15T12:31:11;4.10;;;3.80;;
3278;SDS011;1651;50.940;6.888;2023-04-15T12:33:37;4.37;;;4.00;;
3278;SDS011;1651;50.940;6.888;2023-04-15T12:36:04;3.70;;;3.40;;
3278;SDS011;1651;50.940;6.888;2023-04-15T12:38:30;4.50;;;3.00;;
3278;SDS011;1651;50.940;6.888;2023-04-15T12:40:56;4.43;;;4.03;;
3278;SDS011;1651;50.940;6.888;2023-04-15T12:43:23;3.80;;;3.50;;
3278;SDS011;1651;50.940;6.888;2023-04-15T12:45:49;3.80;;;3.43;;
3278;SDS011;1651;50.940;6.888;2023-04-15T12:48:15;4.00;;;3.60;;
3278;SDS011;1651;50.940;6.888;2023-04-15T12:50:41;4.10;;;3.80;;
3278;SDS011;1651;50.940;6.888;2023-04-15T12:53:09;4.43;;;3.50;;
3278;SDS011;1651;50.940;6.888;2023-04-15T12:55:35;4.03;;;3.67;;
3278;SDS011;1651;50.940;6.888;2023-04-15T12:58:04;5.90;;;3.73;;
3278;SDS011;1651;50.940;6.888;2023-04-15T13:00:36;3.90;;;3.60;;
3278;SDS011;1651;50.940;6.888;2023-04-15T13:03:03;4.27;;;3.63;;
3278;SDS011;1651;50.940;6.888;2023-04-15T13:05:31;5.33;;;3.90;;
3278;SDS011;1651;50.940;6.888;2023-04-15T13:07:58;4.80;;;4.30;;
3278;SDS011;1651;50.940;6.888;2023-04-15T13:10:24;4.00;;;3.40;;
3278;SDS011;1651;50.940;6.888;2023-04-15T13:12:50;4.53;;;3.70;;
3278;SDS011;1651;50.940;6.888;2023-04-15T13:15:17;4.53;;;3.90;;
3278;SDS011;1651;50.940;6.888;2023-04-15T13:17:44;5.17;;;4.17;;
3278;SDS011;1651;50.940;6.888;2023-04-15T13:20:10;4.33;;;3.83;;
3278;SDS011;1651;50.940;6.888;2023-04-15T13:22:36;5.00;;;4.50;;
3278;SDS011;1651;50.940;6.888;2023-04-15T13:25:02;6.93;;;4.03;;
3278;SDS011;1651;50.940;6.888;2023-04-15T13:27:28;5.90;;;3.80;;
3278;SDS011;1651;50.940;6.888;2023-04-15T13:29:55;4.03;;;3.43;;
3278;SDS011;1651;50.940;6.888;2023-04-15T13:32:21;4.70;;;3.83;;
3278;SDS011;1651;50.940;6.888;2023-04-15T13:34:47;4.30;;;3.83;;
3278;SDS011;1651;50.940;6.888;2023-04-15T13:37:13;3.63;;;3.30;;
3278;SDS011;1651;50.940;6.888;2023-04-15T13:39:39;3.73;;;3.37;;
3278;SDS011;1651;50.940;6.888;2023-04-15T13:42:05;3.90;;;3.03;;
3278;SDS011;1651;50.940;6.888;2023-04-15T13:44:31;7.73;;;3.90;;
3278;SDS011;1651;50.940;6.888;2023-04-15T13:46:57;3.30;;;2.63;;
3278;SDS011;1651;50.940;6.888;2023-04-15T13:49:23;5.00;;;3.60;;
3278;SDS011;1651;50.940;6.888;2023-04-15T13:51:51;8.13;;;6.70;;
3278;SDS011;1651;50.940;6.888;2023-04-15T13:54:17;8.47;;;7.40;;
3278;SDS011;1651;50.940;6.888;2023-04-15T13:56:43;8.80;;;7.53;;
3278;SDS011;1651;50.940;6.888;2023-04-15T13:59:10;10.33;;;8.53;;
3278;SDS011;1651;50.940;6.888;2023-04-15T14:01:38;8.07;;;7.27;;
3278;SDS011;1651;50.940;6.888;2023-04-15T14:04:05;9.83;;;7.63;;
3278;SDS011;1651;50.940;6.888;2023-04-15T14:06:31;10.47;;;8.67;;
3278;SDS011;1651;50.940;6.888;2023-04-15T14:08:57;9.20;;;7.90;;
3278;SDS011;1651;50.940;6.888;2023-04-15T14:11:23;11.53;;;8.00;;
3278;SDS011;1651;50.940;6.888;2023-04-15T14:13:49;9.27;;;7.37;;
3278;SDS011;1651;50.940;6.888;2023-04-15T14:16:16;10.73;;;8.67;;
3278;SDS011;1651;50.940;6.888;2023-04-15T14:21:11;9.40;;;7.80;;
3278;SDS011;1651;50.940;6.888;2023-04-15T14:23:37;9.60;;;8.57;;
3278;SDS011;1651;50.940;6.888;2023-04-15T14:26:03;10.10;;;8.40;;
3278;SDS011;1651;50.940;6.888;2023-04-15T14:28:29;10.13;;;9.10;;
3278;SDS011;1651;50.940;6.888;2023-04-15T14:30:56;11.50;;;9.23;;
3278;SDS011;1651;50.940;6.888;2023-04-15T14:33:22;11.27;;;9.20;;
3278;SDS011;1651;50.940;6.888;2023-04-15T14:35:48;10.13;;;9.00;;
3278;SDS011;1651;50.940;6.888;2023-04-15T14:38:14;8.40;;;7.60;;
3278;SDS011;1651;50.940;6.888;2023-04-15T14:40:41;10.50;;;8.20;;
3278;SDS011;1651;50.940;6.888;2023-04-15T14:43:09;10.33;;;7.80;;
3278;SDS011;1651;50.940;6.888;2023-04-15T14:45:36;8.90;;;7.70;;
3278;SDS011;1651;50.940;6.888;2023-04-15T14:48:03;9.00;;;8.10;;
3278;SDS011;1651;50.940;6.888;2023-04-15T14:50:30;9.13;;;7.53;;
3278;SDS011;1651;50.940;6.888;2023-04-15T14:52:57;8.00;;;6.97;;
3278;SDS011;1651;50.940;6.888;2023-04-15T14:55:23;7.80;;;6.90;;
3278;SDS011;1651;50.940;6.888;2023-04-15T14:57:49;9.33;;;7.40;;
3278;SDS011;1651;50.940;6.888;2023-04-15T15:00:15;9.80;;;7.33;;
3278;SDS011;1651;50.940;6.888;2023-04-15T15:02:41;6.43;;;5.80;;
3278;SDS011;1651;50.940;6.888;2023-04-15T15:05:08;7.63;;;6.20;;
3278;SDS011;1651;50.940;6.888;2023-04-15T15:07:36;5.87;;;4.80;;
3278;SDS011;1651;50.940;6.888;2023-04-15T15:10:02;6.93;;;5.50;;
3278;SDS011;1651;50.940;6.888;2023-04-15T15:12:28;6.80;;;5.17;;
3278;SDS011;1651;50.940;6.888;2023-04-15T15:14:54;5.37;;;4.27;;
3278;SDS011;1651;50.940;6.888;2023-04-15T15:17:20;6.43;;;4.67;;
3278;SDS011;1651;50.940;6.888;2023-04-15T15:19:46;6.40;;;4.70;;
3278;SDS011;1651;50.940;6.888;2023-04-15T15:22:12;8.33;;;5.43;;
3278;SDS011;1651;50.940;6.888;2023-04-15T15:24:38;6.20;;;4.73;;
3278;SDS011;1651;50.940;6.888;2023-04-15T15:27:06;5.70;;;5.07;;
3278;SDS011;1651;50.940;6.888;2023-04-15T15:29:32;11.63;;;5.83;;
3278;SDS011;1651;50.940;6.888;2023-04-15T15:31:58;6.67;;;5.40;;
3278;SDS011;1651;50.940;6.888;2023-04-15T15:34:25;6.00;;;5.20;;
3278;SDS011;1651;50.940;6.888;2023-04-15T15:36:51;6.50;;;5.17;;
3278;SDS011;1651;50.940;6.888;2023-04-15T15:39:17;6.90;;;5.07;;
3278;SDS011;1651;50.940;6.888;2023-04-15T15:41:43;7.00;;;6.30;;
3278;SDS011;1651;50.940;6.888;2023-04-15T15:44:09;7.97;;;6.23;;
3278;SDS011;1651;50.940;6.888;2023-04-15T15:46:35;5.77;;;5.27;;
3278;SDS011;1651;50.940;6.888;2023-04-15T15:49:01;8.10;;;6.80;;
3278;SDS011;1651;50.940;6.888;2023-04-15T15:51:28;7.20;;;6.00;;
3278;SDS011;1651;50.940;6.888;2023-04-15T15:53:54;9.73;;;5.13;;
3278;SDS011;1651;50.940;6.888;2023-04-15T15:56:20;5.43;;;4.87;;